Time;durP1;ratioP1;P1;durP2;ratioP2;P2;SDS_P1;SDS_P2;PMS_P1;PMS_P2;Temp;Humidity;BMP_temperature;BMP_pressure;BME280_temperature;BME280_humidity;BME280_pressure;Samples;Min_cycle;Max_cycle;Signal;HPM_P1;HPM_P2
2022/12/01 00:01:04;;;;;;;;;;;5.20;75.10;;;;;;4976871;28;20422;-82
2022/12/01 00:03:30;;;;;;;;;;;5.20;73.30;;;;;;4976792;28;19992;-83
2022/12/01 00:05:59;;;;;;;;;;;5.20;72.50;;;;;;4994211;28;19906;-84
2022/12/01 00:08:25;;;;;;;;;;;5.20;72.30;;;;;;4976658;28;19956;-84
2022/12/01 00:10:50;;;;;;;;;;;5.20;72.50;;;;;;4994070;28;19952;-82
2022/12/01 00:13:15;;;;;;;;;;;5.20;72.60;;;;;;4994127;28;19945;-83
2022/12/01 00:15:41;;;;;;;;;;;5.20;71.50;;;;;;4976710;28;19909;-84
2022/12/01 00:18:06;;;;;;;;;;;5.10;71.10;;;;;;4976718;28;19996;-83
2022/12/01 00:20:33;;;;;;;;;;;5.10;70.60;;;;;;4976771;28;19906;-83
2022/12/01 00:22:58;;;;;;;;;;;5.20;70.80;;;;;;4976625;28;19906;-83
2022/12/01 00:25:24;;;;;;;;;;;5.10;70.30;;;;;;4993899;28;20338;-83
2022/12/01 00:27:50;;;;;;;;;;;5.10;70.90;;;;;;4976565;28;19913;-83
2022/12/01 00:30:17;;;;;;;;;;;5.10;70.90;;;;;;4976422;28;19909;-83
2022/12/01 00:32:42;;;;;;;;;;;5.10;71.20;;;;;;4993901;28;20021;-83
2022/12/01 00:35:08;;;;;;;;;;;5.20;71.60;;;;;;4993880;28;19913;-82
2022/12/01 00:37:34;;;;;;;;;;;5.20;72.50;;;;;;4976616;28;20014;-82
2022/12/01 00:40:00;;;;;;;;;;;5.20;74.40;;;;;;4976495;28;20270;-83
2022/12/01 00:42:26;;;;;;;;;;;5.20;75.40;;;;;;4976335;28;19913;-83
2022/12/01 00:44:51;;;;;;;;;;;5.10;76.40;;;;;;4993722;28;19913;-82
2022/12/01 00:47:17;;;;;;;;;;;5.20;78.10;;;;;;4993778;28;19913;-81
2022/12/01 00:49:44;;;;;;;;;;;5.20;79.10;;;;;;4993710;28;19933;-81
2022/12/01 00:52:10;;;;;;;;;;;5.10;79.00;;;;;;4976180;28;19920;-82
2022/12/01 00:54:36;;;;;;;;;;;5.10;80.00;;;;;;4993744;28;19910;-82
2022/12/01 00:57:01;;;;;;;;;;;5.10;80.50;;;;;;4976313;28;20306;-81
2022/12/01 00:59:27;;;;;;;;;;;5.00;80.40;;;;;;4993720;28;19906;-82
2022/12/01 01:01:52;;;;;;;;;;;5.00;80.50;;;;;;4993585;28;19988;-81
2022/12/01 01:04:18;;;;;;;;;;;5.00;80.40;;;;;;4994529;28;19929;-81
2022/12/01 01:06:43;;;;;;;;;;;5.00;79.10;;;;;;4997243;28;20340;-81
2022/12/01 01:09:09;;;;;;;;;;;5.00;76.50;;;;;;4979730;28;20354;-82
2022/12/01 01:11:35;;;;;;;;;;;4.90;74.80;;;;;;4979519;28;19920;-82
2022/12/01 01:14:00;;;;;;;;;;;4.80;73.70;;;;;;4979603;28;20281;-82
2022/12/01 01:16:26;;;;;;;;;;;4.80;73.40;;;;;;4979635;28;19914;-82
2022/12/01 01:18:51;;;;;;;;;;;4.80;73.10;;;;;;4979601;28;19906;-81
2022/12/01 01:21:19;;;;;;;;;;;4.70;73.10;;;;;;4979750;28;19906;-82
2022/12/01 01:23:45;;;;;;;;;;;4.70;73.10;;;;;;4979235;28;19914;-82
2022/12/01 01:26:12;;;;;;;;;;;4.70;73.10;;;;;;4996852;28;19917;-81
2022/12/01 01:28:40;;;;;;;;;;;4.70;72.50;;;;;;4979378;28;19906;-82
2022/12/01 01:31:10;;;;;;;;;;;4.70;72.00;;;;;;4996829;28;19913;-81
2022/12/01 01:33:35;;;;;;;;;;;4.60;71.40;;;;;;4979585;28;19906;-82
2022/12/01 01:36:01;;;;;;;;;;;4.60;71.70;;;;;;4979247;28;19905;-82
2022/12/01 01:38:27;;;;;;;;;;;4.60;71.40;;;;;;4996707;28;19905;-81
2022/12/01 01:40:53;;;;;;;;;;;4.60;71.40;;;;;;4996820;28;19905;-81
2022/12/01 01:43:37;;;;;;;;;;;4.60;71.70;;;;;;4979079;28;19955;-81
2022/12/01 01:46:07;;;;;;;;;;;4.50;71.80;;;;;;4979118;28;20084;-81
2022/12/01 01:48:34;;;;;;;;;;;4.50;71.90;;;;;;4996560;28;19906;-81
2022/12/01 01:51:00;;;;;;;;;;;4.50;72.00;;;;;;4996390;28;19921;-81
2022/12/01 01:53:26;;;;;;;;;;;4.50;71.10;;;;;;4996643;28;19906;-81
2022/12/01 01:55:51;;;;;;;;;;;4.50;71.00;;;;;;4996425;28;19906;-80
2022/12/01 01:58:18;;;;;;;;;;;4.50;70.40;;;;;;4979014;28;19988;-81
2022/12/01 02:00:44;;;;;;;;;;;4.40;70.50;;;;;;4996415;28;19913;-81
2022/12/01 02:03:10;;;;;;;;;;;4.40;70.90;;;;;;4996347;28;20037;-81
2022/12/01 02:05:37;;;;;;;;;;;4.30;71.10;;;;;;4996211;28;19913;-81
2022/12/01 02:08:03;;;;;;;;;;;4.40;71.20;;;;;;4996282;28;19959;-81
2022/12/01 02:10:38;;;;;;;;;;;4.40;71.60;;;;;;4996116;28;19906;-81
2022/12/01 02:13:28;;;;;;;;;;;4.40;71.80;;;;;;4995994;28;19913;-81
2022/12/01 02:16:09;;;;;;;;;;;4.40;71.90;;;;;;4978444;28;20474;-83
2022/12/01 02:18:35;;;;;;;;;;;4.30;72.10;;;;;;4978533;28;20350;-83
2022/12/01 02:21:15;;;;;;;;;;;4.30;72.10;;;;;;4995969;28;19913;-83
2022/12/01 02:23:50;;;;;;;;;;;4.30;72.40;;;;;;4978183;28;20004;-83
2022/12/01 02:26:29;;;;;;;;;;;4.30;72.70;;;;;;4995823;28;19917;-82
2022/12/01 02:29:03;;;;;;;;;;;4.30;72.90;;;;;;4995764;28;19906;-82
2022/12/01 02:31:35;;;;;;;;;;;4.30;72.90;;;;;;4995883;28;19914;-82
2022/12/01 02:34:16;;;;;;;;;;;4.30;73.10;;;;;;4995869;28;19909;-81
2022/12/01 02:36:45;;;;;;;;;;;4.30;73.50;;;;;;4995799;28;19906;-81
2022/12/01 02:39:13;;;;;;;;;;;4.30;72.70;;;;;;4995612;28;19913;-81
2022/12/01 02:41:41;;;;;;;;;;;4.40;72.80;;;;;;4978164;28;19906;-81
2022/12/01 02:44:15;;;;;;;;;;;4.30;72.80;;;;;;4978182;28;19905;-81
2022/12/01 02:46:44;;;;;;;;;;;4.40;72.70;;;;;;4995646;28;19906;-81
2022/12/01 02:49:12;;;;;;;;;;;4.30;72.80;;;;;;4995632;28;19905;-81
2022/12/01 02:51:39;;;;;;;;;;;4.30;73.10;;;;;;4995465;28;19921;-80
2022/12/01 02:54:04;;;;;;;;;;;4.20;73.20;;;;;;4993556;28;19984;-83
2022/12/01 02:56:30;;;;;;;;;;;4.10;73.50;;;;;;4998043;28;20358;-83
2022/12/01 02:58:55;;;;;;;;;;;4.20;73.20;;;;;;4995214;28;19905;-80
2022/12/01 03:01:24;;;;;;;;;;;4.20;73.20;;;;;;4977808;28;20370;-83
2022/12/01 03:04:01;;;;;;;;;;;4.10;73.20;;;;;;4995127;28;19905;-83
2022/12/01 03:06:36;;;;;;;;;;;4.10;73.30;;;;;;4977896;28;20239;-85
2022/12/01 03:09:08;;;;;;;;;;;4.10;73.30;;;;;;4995088;28;19957;-83
2022/12/01 03:11:38;;;;;;;;;;;4.10;73.30;;;;;;4977716;28;19917;-85
2022/12/01 03:14:10;;;;;;;;;;;4.20;73.40;;;;;;4977533;28;19910;-82
2022/12/01 03:16:49;;;;;;;;;;;4.20;73.30;;;;;;4994918;28;19917;-84
2022/12/01 03:19:15;;;;;;;;;;;4.10;73.20;;;;;;4977492;28;20326;-84
2022/12/01 03:21:43;;;;;;;;;;;4.10;73.10;;;;;;4977383;28;19906;-84
2022/12/01 03:24:13;;;;;;;;;;;4.10;73.10;;;;;;4994564;28;19914;-81
2022/12/01 03:26:40;;;;;;;;;;;4.10;73.10;;;;;;4976705;28;19906;-82
2022/12/01 03:29:12;;;;;;;;;;;4.20;73.30;;;;;;4977191;28;19909;-84
2022/12/01 03:31:41;;;;;;;;;;;4.20;73.30;;;;;;4994874;28;19913;-84
2022/12/01 03:34:10;;;;;;;;;;;4.20;73.30;;;;;;4980825;28;20405;-81
2022/12/01 03:36:41;;;;;;;;;;;4.20;73.40;;;;;;5007202;28;20373;-84
2022/12/01 03:39:10;;;;;;;;;;;4.20;73.40;;;;;;4999279;28;19911;-82
2022/12/01 03:41:38;;;;;;;;;;;4.20;73.50;;;;;;4981901;28;20004;-83
2022/12/01 03:44:10;;;;;;;;;;;4.20;73.70;;;;;;4996721;28;19910;-81
2022/12/01 03:46:50;;;;;;;;;;;4.20;73.80;;;;;;5002666;28;19929;-80
2022/12/01 03:49:16;;;;;;;;;;;4.30;73.70;;;;;;5002086;28;19953;-81
2022/12/01 03:51:54;;;;;;;;;;;4.30;73.50;;;;;;5001597;28;19917;-82
2022/12/01 03:54:24;;;;;;;;;;;4.30;73.20;;;;;;5019210;28;19965;-81
2022/12/01 03:56:54;;;;;;;;;;;4.30;73.30;;;;;;4993796;28;20375;-82
2022/12/01 03:59:21;;;;;;;;;;;4.30;73.40;;;;;;4994702;28;19906;-82
2022/12/01 04:01:46;;;;;;;;;;;4.30;73.30;;;;;;4977457;28;19906;-82
2022/12/01 04:04:13;;;;;;;;;;;4.30;73.20;;;;;;4976958;28;19906;-82
2022/12/01 04:06:43;;;;;;;;;;;4.30;73.00;;;;;;4976936;28;19912;-82
2022/12/01 04:09:09;;;;;;;;;;;4.30;72.10;;;;;;4976683;28;19912;-82
2022/12/01 04:14:18;;;;;;;;;;;4.10;71.90;;;;;;4994572;28;19913;-82
2022/12/01 04:16:44;;;;;;;;;;;4.10;72.50;;;;;;4976963;28;19906;-82
2022/12/01 04:19:09;;;;;;;;;;;4.00;72.50;;;;;;4994192;28;19906;-82
2022/12/01 04:21:35;;;;;;;;;;;4.10;72.30;;;;;;4976725;28;20380;-83
2022/12/01 04:24:00;;;;;;;;;;;4.00;72.20;;;;;;4993893;28;19914;-82
2022/12/01 04:26:31;;;;;;;;;;;4.00;72.40;;;;;;4994166;28;20297;-81
2022/12/01 04:28:57;;;;;;;;;;;4.00;72.30;;;;;;4976505;28;19906;-81
2022/12/01 04:31:23;;;;;;;;;;;3.90;72.70;;;;;;4976539;28;20021;-82
2022/12/01 04:33:48;;;;;;;;;;;3.90;72.90;;;;;;4994130;28;19957;-82
2022/12/01 04:36:13;;;;;;;;;;;4.00;72.70;;;;;;4994027;28;19913;-82
2022/12/01 04:38:39;;;;;;;;;;;3.90;72.70;;;;;;4995402;28;20385;-83
2022/12/01 04:41:09;;;;;;;;;;;3.90;72.90;;;;;;4980291;28;19952;-82
2022/12/01 04:43:35;;;;;;;;;;;3.90;73.00;;;;;;4997830;28;19948;-83
2022/12/01 04:46:00;;;;;;;;;;;3.90;73.40;;;;;;4997769;28;19913;-83
2022/12/01 04:48:26;;;;;;;;;;;3.90;73.60;;;;;;4997608;28;19913;-83
2022/12/01 04:50:51;;;;;;;;;;;3.90;73.70;;;;;;4997643;28;19972;-82
2022/12/01 04:53:16;;;;;;;;;;;3.90;73.50;;;;;;4997821;28;19953;-83
2022/12/01 04:55:42;;;;;;;;;;;3.90;73.50;;;;;;4997671;28;20361;-82
2022/12/01 04:58:07;;;;;;;;;;;3.90;73.80;;;;;;4997554;28;19961;-82
2022/12/01 05:00:33;;;;;;;;;;;3.80;73.80;;;;;;4997679;28;19910;-82
2022/12/01 05:02:59;;;;;;;;;;;3.80;74.20;;;;;;4998148;28;19906;-82
2022/12/01 05:05:24;;;;;;;;;;;3.90;74.20;;;;;;4997724;28;19949;-83
2022/12/01 05:07:50;;;;;;;;;;;3.80;75.00;;;;;;4997506;28;20337;-83
2022/12/01 05:10:17;;;;;;;;;;;3.90;74.20;;;;;;4997299;28;20381;-82
2022/12/01 05:12:45;;;;;;;;;;;3.90;74.20;;;;;;4979671;28;19995;-83
2022/12/01 05:15:11;;;;;;;;;;;3.90;74.10;;;;;;4979802;28;19906;-82
2022/12/01 05:17:36;;;;;;;;;;;4.00;73.90;;;;;;4997143;28;19909;-82
2022/12/01 05:22:47;;;;;;;;;;;4.00;74.00;;;;;;4997382;28;19933;-83
2022/12/01 05:25:12;;;;;;;;;;;4.00;74.00;;;;;;4979417;28;19918;-83
2022/12/01 05:27:37;;;;;;;;;;;3.90;74.10;;;;;;4996933;28;19906;-82
2022/12/01 05:30:03;;;;;;;;;;;4.00;74.30;;;;;;4979619;28;19909;-81
2022/12/01 05:32:29;;;;;;;;;;;4.00;74.40;;;;;;4996719;28;19914;-82
2022/12/01 05:34:54;;;;;;;;;;;4.00;74.40;;;;;;4979458;28;19905;-82
2022/12/01 05:37:20;;;;;;;;;;;3.90;74.60;;;;;;4989591;28;19890;-82
2022/12/01 05:39:45;;;;;;;;;;;3.90;74.70;;;;;;5004746;28;19912;-83
2022/12/01 05:42:11;;;;;;;;;;;4.00;74.80;;;;;;4979164;28;19906;-82
2022/12/01 05:44:36;;;;;;;;;;;3.90;74.70;;;;;;4979195;28;20313;-83
2022/12/01 05:47:02;;;;;;;;;;;4.00;74.70;;;;;;4996615;28;20278;-82
2022/12/01 05:49:27;;;;;;;;;;;3.90;74.70;;;;;;4978734;28;19906;-81
2022/12/01 05:51:52;;;;;;;;;;;3.90;75.00;;;;;;4978697;28;19917;-81
2022/12/01 05:54:18;;;;;;;;;;;3.90;75.10;;;;;;4979098;28;19905;-80
2022/12/01 05:56:43;;;;;;;;;;;3.90;75.10;;;;;;4996562;28;19990;-80
2022/12/01 05:59:09;;;;;;;;;;;3.90;75.30;;;;;;4978961;28;19906;-83
2022/12/01 06:01:34;;;;;;;;;;;3.90;75.80;;;;;;4978964;28;19913;-81
2022/12/01 06:04:00;;;;;;;;;;;3.90;76.00;;;;;;4996655;28;20399;-83
2022/12/01 06:06:25;;;;;;;;;;;3.80;76.00;;;;;;4996408;28;20354;-81
2022/12/01 06:08:51;;;;;;;;;;;3.90;76.10;;;;;;4996103;28;20361;-83
2022/12/01 06:11:16;;;;;;;;;;;3.90;75.90;;;;;;4978631;28;19917;-82
2022/12/01 06:13:42;;;;;;;;;;;3.90;75.80;;;;;;4996341;28;20036;-82
2022/12/01 06:16:07;;;;;;;;;;;3.90;75.80;;;;;;4996115;28;19906;-82
2022/12/01 06:18:35;;;;;;;;;;;3.90;75.80;;;;;;4978680;28;19972;-79
2022/12/01 06:21:00;;;;;;;;;;;3.90;75.60;;;;;;4995965;28;19905;-80
2022/12/01 06:23:26;;;;;;;;;;;3.90;75.30;;;;;;4995799;28;19913;-80
2022/12/01 06:25:51;;;;;;;;;;;3.90;75.10;;;;;;4995965;28;20387;-79
2022/12/01 06:28:17;;;;;;;;;;;3.80;75.00;;;;;;4978307;28;19913;-80
2022/12/01 06:30:42;;;;;;;;;;;3.80;74.40;;;;;;4978188;28;19916;-81
2022/12/01 06:33:08;;;;;;;;;;;3.80;73.80;;;;;;4995637;28;19996;-81
2022/12/01 06:35:34;;;;;;;;;;;3.70;73.60;;;;;;4977580;28;19916;-83
2022/12/01 06:37:59;;;;;;;;;;;3.70;73.70;;;;;;4995728;28;19906;-82
2022/12/01 06:40:25;;;;;;;;;;;3.70;73.70;;;;;;4995609;28;20052;-80
2022/12/01 06:42:51;;;;;;;;;;;3.80;73.80;;;;;;4995690;28;19913;-83
2022/12/01 06:45:16;;;;;;;;;;;3.80;73.60;;;;;;4986783;28;19905;-80
2022/12/01 06:47:42;;;;;;;;;;;3.80;73.70;;;;;;4982917;28;19906;-79
2022/12/01 06:50:08;;;;;;;;;;;3.80;73.70;;;;;;4984139;28;19932;-81
2022/12/01 06:52:35;;;;;;;;;;;3.90;73.80;;;;;;4979571;28;19918;-79
2022/12/01 06:55:02;;;;;;;;;;;3.90;74.10;;;;;;4996218;28;19913;-79
2022/12/01 06:57:28;;;;;;;;;;;3.90;74.30;;;;;;4979264;28;19969;-80
2022/12/01 06:59:54;;;;;;;;;;;3.90;74.60;;;;;;4995750;28;19948;-81
2022/12/01 07:02:19;;;;;;;;;;;3.90;75.00;;;;;;4994896;28;19912;-81
2022/12/01 07:04:44;;;;;;;;;;;4.00;75.70;;;;;;4978191;28;19968;-79
2022/12/01 07:07:11;;;;;;;;;;;3.90;76.20;;;;;;4995328;28;20396;-81
2022/12/01 07:09:36;;;;;;;;;;;3.90;76.80;;;;;;4982428;28;19906;-80
2022/12/01 07:12:02;;;;;;;;;;;4.00;77.30;;;;;;4977529;28;19940;-82
2022/12/01 07:14:27;;;;;;;;;;;3.90;78.00;;;;;;4995163;28;19906;-81
2022/12/01 07:16:53;;;;;;;;;;;3.90;78.20;;;;;;4977641;28;19937;-81
2022/12/01 07:19:18;;;;;;;;;;;3.90;78.50;;;;;;4994722;28;19941;-81
2022/12/01 07:21:44;;;;;;;;;;;3.90;78.60;;;;;;4994866;28;19909;-81
2022/12/01 07:24:11;;;;;;;;;;;3.90;78.80;;;;;;4994315;28;20440;-84
2022/12/01 07:26:37;;;;;;;;;;;4.00;78.30;;;;;;4994373;28;19913;-83
2022/12/01 07:29:02;;;;;;;;;;;4.00;77.90;;;;;;4977186;28;19927;-85
2022/12/01 07:31:28;;;;;;;;;;;4.00;77.20;;;;;;4994630;28;19921;-83
2022/12/01 07:33:53;;;;;;;;;;;4.10;76.90;;;;;;4994750;28;19909;-83
2022/12/01 07:36:19;;;;;;;;;;;4.10;77.10;;;;;;4994401;28;19913;-83
2022/12/01 07:38:45;;;;;;;;;;;4.10;77.60;;;;;;4994362;28;19910;-84
2022/12/01 07:41:12;;;;;;;;;;;4.10;77.70;;;;;;4976809;28;19952;-80
2022/12/01 07:43:38;;;;;;;;;;;4.20;78.00;;;;;;4994273;28;19906;-80
2022/12/01 07:46:11;;;;;;;;;;;4.10;78.20;;;;;;4994046;28;19912;-80
2022/12/01 07:48:37;;;;;;;;;;;4.10;78.30;;;;;;4994138;28;20016;-80
2022/12/01 07:51:03;;;;;;;;;;;4.10;78.70;;;;;;4994018;28;19920;-81
2022/12/01 07:53:29;;;;;;;;;;;4.00;78.80;;;;;;4976843;28;19910;-81
2022/12/01 07:55:54;;;;;;;;;;;3.90;78.90;;;;;;4994116;28;20262;-80
2022/12/01 07:58:20;;;;;;;;;;;3.80;79.40;;;;;;4994096;28;19912;-82
2022/12/01 08:00:45;;;;;;;;;;;3.90;79.70;;;;;;4976519;28;20235;-81
2022/12/01 08:03:11;;;;;;;;;;;3.80;79.80;;;;;;4993950;28;20333;-82
2022/12/01 08:05:37;;;;;;;;;;;3.80;79.90;;;;;;4994276;28;19964;-80
2022/12/01 08:08:02;;;;;;;;;;;3.70;80.00;;;;;;4994203;28;19961;-81
2022/12/01 08:10:28;;;;;;;;;;;3.80;80.20;;;;;;4976699;28;19914;-81
2022/12/01 08:12:53;;;;;;;;;;;3.70;80.20;;;;;;4976468;28;19913;-80
2022/12/01 08:15:19;;;;;;;;;;;3.70;80.20;;;;;;4976423;28;19992;-81
2022/12/01 08:17:44;;;;;;;;;;;3.70;80.80;;;;;;4976250;28;20362;-80
2022/12/01 08:20:11;;;;;;;;;;;3.70;80.80;;;;;;4976334;28;19905;-80
2022/12/01 08:22:36;;;;;;;;;;;3.70;80.50;;;;;;4994064;28;19905;-81
2022/12/01 08:25:11;;;;;;;;;;;3.70;80.70;;;;;;4976368;28;19917;-82
2022/12/01 08:27:36;;;;;;;;;;;3.70;80.50;;;;;;4994010;28;20005;-82
2022/12/01 08:30:02;;;;;;;;;;;3.70;80.30;;;;;;4994102;28;20007;-83
2022/12/01 08:32:28;;;;;;;;;;;3.70;80.50;;;;;;4993975;28;19913;-84
2022/12/01 08:34:54;;;;;;;;;;;3.70;80.60;;;;;;4976564;28;19910;-83
2022/12/01 08:37:19;;;;;;;;;;;3.60;80.40;;;;;;4976406;28;20429;-84
2022/12/01 08:42:44;;;;;;;;;;;3.50;80.80;;;;;;4994632;28;20008;-84
2022/12/01 08:45:10;;;;;;;;;;;3.50;81.00;;;;;;4994019;28;19941;-84
2022/12/01 08:47:36;;;;;;;;;;;3.50;81.50;;;;;;4994092;28;19921;-83
2022/12/01 08:50:03;;;;;;;;;;;3.50;81.60;;;;;;4994189;28;19906;-82
2022/12/01 08:52:32;;;;;;;;;;;3.40;81.60;;;;;;4976998;28;19921;-84
2022/12/01 08:54:58;;;;;;;;;;;3.50;81.70;;;;;;4994674;28;19906;-84
2022/12/01 08:57:23;;;;;;;;;;;3.50;81.90;;;;;;4995046;28;19956;-84
2022/12/01 08:59:49;;;;;;;;;;;3.50;81.90;;;;;;4994082;28;19928;-85
2022/12/01 09:02:17;;;;;;;;;;;3.50;81.60;;;;;;4977286;28;19913;-85
2022/12/01 09:04:43;;;;;;;;;;;3.60;81.60;;;;;;4994644;28;19910;-86
2022/12/01 09:07:09;;;;;;;;;;;3.60;81.50;;;;;;4993742;28;19906;-85
2022/12/01 09:09:35;;;;;;;;;;;3.50;81.20;;;;;;4976053;28;19906;-83
2022/12/01 09:12:01;;;;;;;;;;;3.50;81.60;;;;;;4993356;28;19913;-82
2022/12/01 09:14:27;;;;;;;;;;;3.40;81.80;;;;;;4976944;28;19912;-84
2022/12/01 09:16:52;;;;;;;;;;;3.40;82.00;;;;;;4976168;28;20362;-83
2022/12/01 09:19:19;;;;;;;;;;;3.40;82.10;;;;;;4975900;28;19915;-83
2022/12/01 09:21:44;;;;;;;;;;;3.30;82.50;;;;;;4976083;28;19916;-84
2022/12/01 09:24:10;;;;;;;;;;;3.30;82.70;;;;;;4993637;28;20289;-84
2022/12/01 09:26:36;;;;;;;;;;;3.40;82.70;;;;;;4978638;28;19941;-81
2022/12/01 09:29:03;;;;;;;;;;;3.40;82.70;;;;;;4996656;28;19906;-82
2022/12/01 09:31:29;;;;;;;;;;;3.40;82.70;;;;;;4997028;28;19968;-81
2022/12/01 09:33:58;;;;;;;;;;;3.50;82.50;;;;;;4996529;28;20266;-81
2022/12/01 09:36:24;;;;;;;;;;;3.50;82.50;;;;;;4979339;28;19949;-81
2022/12/01 09:38:50;;;;;;;;;;;3.50;82.40;;;;;;4996816;28;19968;-81
2022/12/01 09:41:15;;;;;;;;;;;3.50;82.40;;;;;;4979211;28;19906;-80
2022/12/01 09:43:44;;;;;;;;;;;3.40;82.40;;;;;;4996433;28;19906;-81
2022/12/01 09:46:17;;;;;;;;;;;3.40;82.60;;;;;;4996457;28;19906;-81
2022/12/01 09:48:44;;;;;;;;;;;3.40;83.00;;;;;;4979288;28;19912;-82
2022/12/01 09:51:21;;;;;;;;;;;3.40;83.10;;;;;;4979329;28;19956;-81
2022/12/01 09:53:49;;;;;;;;;;;3.50;83.20;;;;;;4978935;28;20325;-81
2022/12/01 09:56:20;;;;;;;;;;;3.50;82.90;;;;;;4996526;28;19906;-81
2022/12/01 09:58:46;;;;;;;;;;;3.60;82.80;;;;;;4996640;28;20338;-81
2022/12/01 10:01:17;;;;;;;;;;;3.70;82.80;;;;;;4979022;28;19953;-81
2022/12/01 10:03:47;;;;;;;;;;;3.70;82.80;;;;;;4978734;28;19968;-81
2022/12/01 10:06:18;;;;;;;;;;;3.80;82.40;;;;;;4978600;28;19984;-84
2022/12/01 10:09:01;;;;;;;;;;;3.80;82.30;;;;;;4996333;28;19988;-80
2022/12/01 10:11:29;;;;;;;;;;;3.90;82.00;;;;;;4978566;28;19913;-82
2022/12/01 10:13:55;;;;;;;;;;;3.90;81.80;;;;;;4978456;28;19906;-82
2022/12/01 10:16:25;;;;;;;;;;;3.90;81.80;;;;;;4978385;28;19929;-82
2022/12/01 10:19:09;;;;;;;;;;;3.90;81.90;;;;;;4995840;28;19945;-82
2022/12/01 10:22:10;;;;;;;;;;;4.00;81.60;;;;;;4978169;28;20000;-80
2022/12/01 10:24:45;;;;;;;;;;;3.90;81.80;;;;;;4897664;29;20463;-81
2022/12/01 10:27:25;;;;;;;;;;;3.90;82.10;;;;;;4981365;28;19906;-83
2022/12/01 10:30:17;;;;;;;;;;;4.00;82.20;;;;;;4978151;28;19927;-81
2022/12/01 10:32:48;;;;;;;;;;;3.90;82.70;;;;;;4973318;28;20277;-81
2022/12/01 10:35:14;;;;;;;;;;;3.90;82.40;;;;;;4995546;28;19909;-81
2022/12/01 10:37:41;;;;;;;;;;;3.90;82.40;;;;;;4995234;28;20004;-81
2022/12/01 10:40:11;;;;;;;;;;;3.80;82.80;;;;;;4995528;28;19933;-82
2022/12/01 10:42:40;;;;;;;;;;;3.80;82.90;;;;;;4977961;28;19912;-85
2022/12/01 10:45:12;;;;;;;;;;;3.80;82.80;;;;;;4977781;28;20282;-84
2022/12/01 10:47:58;;;;;;;;;;;3.80;83.10;;;;;;4995384;28;19906;-84
2022/12/01 10:50:27;;;;;;;;;;;3.80;83.20;;;;;;4995037;28;19906;-83
2022/12/01 10:52:52;;;;;;;;;;;3.80;83.30;;;;;;4977290;28;19913;-83
2022/12/01 10:55:35;;;;;;;;;;;3.80;83.50;;;;;;4977236;28;19906;-84
2022/12/01 10:58:11;;;;;;;;;;;3.90;83.20;;;;;;4977152;28;19929;-83
2022/12/01 11:00:38;;;;;;;;;;;3.90;82.70;;;;;;4994435;28;19960;-84
2022/12/01 11:03:03;;;;;;;;;;;4.00;82.40;;;;;;4994068;28;19909;-82
2022/12/01 11:05:31;;;;;;;;;;;4.10;82.00;;;;;;4994459;28;19957;-83
2022/12/01 11:07:57;;;;;;;;;;;4.10;81.40;;;;;;4976781;28;19964;-85
2022/12/01 11:10:29;;;;;;;;;;;4.10;81.30;;;;;;4994176;28;19960;-83
2022/12/01 11:13:01;;;;;;;;;;;4.00;81.30;;;;;;4976667;28;19917;-82
2022/12/01 11:15:31;;;;;;;;;;;4.10;81.20;;;;;;4981120;28;19912;-81
2022/12/01 11:18:00;;;;;;;;;;;3.90;81.40;;;;;;4996857;28;19968;-81
2022/12/01 11:20:36;;;;;;;;;;;3.90;81.90;;;;;;5004871;28;19976;-81
2022/12/01 11:23:17;;;;;;;;;;;3.90;82.00;;;;;;4980690;28;19906;-81
2022/12/01 11:26:00;;;;;;;;;;;3.90;82.00;;;;;;4978365;28;19918;-81
2022/12/01 11:28:26;;;;;;;;;;;3.80;82.00;;;;;;4994730;28;19913;-81
2022/12/01 11:30:59;;;;;;;;;;;3.80;82.30;;;;;;4977026;28;20303;-81
2022/12/01 11:33:25;;;;;;;;;;;3.80;82.80;;;;;;4977377;28;19957;-82
2022/12/01 11:35:51;;;;;;;;;;;3.80;82.80;;;;;;4994406;28;19906;-81
2022/12/01 11:38:21;;;;;;;;;;;3.90;83.10;;;;;;4976821;28;19952;-82
2022/12/01 11:40:48;;;;;;;;;;;3.90;83.00;;;;;;4994121;28;20337;-82
2022/12/01 11:43:21;;;;;;;;;;;3.90;83.00;;;;;;4994219;28;19945;-81
2022/12/01 11:45:46;;;;;;;;;;;3.90;82.80;;;;;;4976692;28;20305;-82
2022/12/01 11:48:12;;;;;;;;;;;4.00;82.50;;;;;;4993141;28;20019;-81
2022/12/01 11:50:39;;;;;;;;;;;4.00;82.60;;;;;;4976260;28;19905;-81
2022/12/01 11:53:24;;;;;;;;;;;3.90;82.30;;;;;;4976180;28;19997;-80
2022/12/01 11:55:50;;;;;;;;;;;4.00;82.40;;;;;;4975981;28;19944;-83
2022/12/01 11:58:15;;;;;;;;;;;4.00;82.60;;;;;;4975834;28;19949;-81
2022/12/01 12:00:45;;;;;;;;;;;4.10;82.60;;;;;;4994892;28;20421;-81
2022/12/01 12:03:14;;;;;;;;;;;4.20;83.10;;;;;;4993496;28;19913;-81
2022/12/01 12:05:45;;;;;;;;;;;4.20;82.20;;;;;;4976856;28;19914;-81
2022/12/01 12:08:11;;;;;;;;;;;4.20;82.10;;;;;;4994916;28;19906;-82
2022/12/01 12:10:39;;;;;;;;;;;4.10;81.60;;;;;;4995590;28;19912;-82
2022/12/01 12:13:14;;;;;;;;;;;4.10;81.90;;;;;;4996097;28;19913;-81
2022/12/01 12:15:51;;;;;;;;;;;4.10;82.00;;;;;;4977158;28;19905;-83
2022/12/01 12:18:29;;;;;;;;;;;4.10;82.10;;;;;;4976009;28;19956;-82
2022/12/01 12:20:54;;;;;;;;;;;4.10;82.40;;;;;;4993643;28;19917;-82
2022/12/01 12:23:23;;;;;;;;;;;4.10;82.50;;;;;;4976278;28;20000;-81
2022/12/01 12:25:52;;;;;;;;;;;4.10;82.60;;;;;;4993735;28;19964;-82
2022/12/01 12:28:26;;;;;;;;;;;4.20;82.50;;;;;;4976072;28;19949;-83
2022/12/01 12:31:14;;;;;;;;;;;4.20;82.40;;;;;;4976145;28;19929;-83
2022/12/01 12:33:49;;;;;;;;;;;4.20;82.30;;;;;;4963321;28;19949;-82
2022/12/01 12:36:24;;;;;;;;;;;4.10;82.50;;;;;;4976394;28;20398;-82
2022/12/01 12:38:56;;;;;;;;;;;4.20;82.50;;;;;;4976143;28;20395;-82
2022/12/01 12:41:28;;;;;;;;;;;4.20;82.50;;;;;;4976112;28;20358;-82
2022/12/01 12:44:12;;;;;;;;;;;4.10;82.40;;;;;;4976247;28;19905;-82
2022/12/01 12:46:46;;;;;;;;;;;4.10;82.60;;;;;;4993322;28;20386;-82
2022/12/01 12:49:14;;;;;;;;;;;4.20;82.90;;;;;;4993461;28;20387;-83
2022/12/01 12:51:43;;;;;;;;;;;4.20;82.50;;;;;;4976459;28;19921;-84
2022/12/01 12:54:11;;;;;;;;;;;4.20;82.40;;;;;;4997401;28;19913;-82
2022/12/01 12:56:39;;;;;;;;;;;4.10;82.30;;;;;;4993691;28;19906;-82
2022/12/01 12:59:40;;;;;;;;;;;4.10;82.30;;;;;;4994282;28;19910;-82
2022/12/01 13:02:08;;;;;;;;;;;4.00;82.40;;;;;;4883722;29;19908;-81
2022/12/01 13:04:40;;;;;;;;;;;4.00;82.50;;;;;;4978410;28;19906;-83
2022/12/01 13:07:09;;;;;;;;;;;4.00;83.00;;;;;;4997795;28;20343;-84
2022/12/01 13:09:38;;;;;;;;;;;4.00;83.10;;;;;;4998509;28;19910;-83
2022/12/01 13:12:24;;;;;;;;;;;4.00;83.10;;;;;;4997700;28;19913;-82
2022/12/01 13:14:55;;;;;;;;;;;3.90;83.30;;;;;;4982249;28;20384;-82
2022/12/01 13:17:25;;;;;;;;;;;3.90;83.70;;;;;;4982606;28;19905;-82
2022/12/01 13:19:50;;;;;;;;;;;3.90;83.70;;;;;;4997984;28;20009;-83
2022/12/01 13:22:17;;;;;;;;;;;4.00;83.80;;;;;;4980115;28;19912;-83
2022/12/01 13:24:43;;;;;;;;;;;3.90;83.70;;;;;;4979472;28;19918;-83
2022/12/01 13:27:08;;;;;;;;;;;4.00;83.60;;;;;;4979539;28;20059;-84
2022/12/01 13:29:36;;;;;;;;;;;3.90;84.00;;;;;;4996924;28;19941;-83
2022/12/01 13:32:02;;;;;;;;;;;3.90;83.90;;;;;;4979187;28;19913;-83
2022/12/01 13:34:34;;;;;;;;;;;4.00;83.70;;;;;;4979384;28;19929;-83
2022/12/01 13:36:59;;;;;;;;;;;3.90;83.70;;;;;;4979241;28;19945;-84
2022/12/01 13:39:26;;;;;;;;;;;3.90;84.00;;;;;;4997071;28;20286;-84
2022/12/01 13:42:05;;;;;;;;;;;3.80;84.00;;;;;;4996581;28;20008;-83
2022/12/01 13:44:41;;;;;;;;;;;3.80;84.50;;;;;;4996654;28;20020;-82
2022/12/01 13:47:10;;;;;;;;;;;3.80;84.80;;;;;;4978986;28;19909;-82
2022/12/01 13:49:42;;;;;;;;;;;3.80;84.70;;;;;;4996620;28;19928;-82
2022/12/01 13:52:14;;;;;;;;;;;3.80;84.60;;;;;;4996289;28;19913;-81
2022/12/01 13:54:58;;;;;;;;;;;3.80;84.40;;;;;;4999196;28;19973;-81
2022/12/01 13:57:25;;;;;;;;;;;3.80;84.40;;;;;;4999842;28;20368;-82
2022/12/01 13:59:56;;;;;;;;;;;3.70;84.40;;;;;;4978702;28;19906;-82
2022/12/01 14:02:22;;;;;;;;;;;3.70;85.00;;;;;;4996269;28;19906;-82
2022/12/01 14:04:47;;;;;;;;;;;3.70;84.90;;;;;;4979045;28;20375;-82
2022/12/01 14:07:19;;;;;;;;;;;3.80;84.90;;;;;;4996051;28;19906;-82
2022/12/01 14:09:46;;;;;;;;;;;3.80;84.60;;;;;;4996254;28;19916;-83
2022/12/01 14:12:30;;;;;;;;;;;3.70;84.50;;;;;;4977536;28;20274;-83
2022/12/01 14:15:01;;;;;;;;;;;3.70;84.70;;;;;;4996009;28;20360;-83
2022/12/01 14:17:28;;;;;;;;;;;3.80;84.90;;;;;;4996003;28;19906;-82
2022/12/01 14:19:54;;;;;;;;;;;3.80;85.00;;;;;;4978357;28;19960;-82
2022/12/01 14:22:40;;;;;;;;;;;3.80;84.90;;;;;;4978392;28;19905;-82
2022/12/01 14:25:18;;;;;;;;;;;3.90;84.80;;;;;;4978149;28;19921;-83
2022/12/01 14:27:44;;;;;;;;;;;3.80;84.50;;;;;;4978182;28;19967;-83
2022/12/01 14:30:28;;;;;;;;;;;3.80;84.70;;;;;;4995495;28;20358;-83
2022/12/01 14:33:13;;;;;;;;;;;3.90;84.80;;;;;;4977789;28;19945;-85
2022/12/01 14:35:39;;;;;;;;;;;3.90;84.70;;;;;;4978300;28;20391;-84
2022/12/01 14:38:06;;;;;;;;;;;3.90;84.90;;;;;;4995493;28;19910;-84
2022/12/01 14:40:31;;;;;;;;;;;3.90;84.80;;;;;;4978194;28;19960;-83
2022/12/01 14:45:49;;;;;;;;;;;4.00;84.80;;;;;;4995797;28;19929;-83
2022/12/01 14:48:17;;;;;;;;;;;3.90;84.30;;;;;;4977621;28;19909;-83
2022/12/01 14:50:47;;;;;;;;;;;3.90;84.50;;;;;;4994893;28;19905;-83